Time;durP1;ratioP1;P1;durP2;ratioP2;P2;SDS_P1;SDS_P2;PMS_P1;PMS_P2;Temp;Humidity;BMP_temperature;BMP_pressure;BME280_temperature;BME280_humidity;BME280_pressure;Samples;Min_cycle;Max_cycle;Signal;HPM_P1;HPM_P2
2022/11/16 00:01:45;;;;;;;16.37;8.48;;;;;;;9.14;75.90;99897.74;1631929;88;21230;-76
2022/11/16 00:04:52;;;;;;;16.60;9.10;;;;;;;8.72;77.18;99890.72;1646111;86;21284;-75
2022/11/16 00:07:57;;;;;;;16.95;10.08;;;;;;;8.65;77.69;99886.45;1630541;88;22006;-76
2022/11/16 00:11:12;;;;;;;15.70;10.55;;;;;;;8.82;77.22;99884.55;1644760;87;21244;-76
2022/11/16 00:14:18;;;;;;;13.85;8.30;;;;;;;8.79;77.18;99882.16;1631651;88;21265;-76
2022/11/16 00:17:25;;;;;;;14.70;8.45;;;;;;;8.84;77.00;99877.55;1645759;87;21252;-76
2022/11/16 00:20:31;;;;;;;19.12;9.55;;;;;;;8.80;77.32;99874.34;1630447;88;21230;-76
2022/11/16 00:23:37;;;;;;;13.55;8.53;;;;;;;8.68;77.77;99863.46;1645681;87;21787;-75
2022/11/16 00:26:44;;;;;;;16.27;9.18;;;;;;;8.73;77.77;99860.22;1631738;88;21523;-76
2022/11/16 00:29:51;;;;;;;15.58;9.13;;;;;;;8.82;77.46;99853.70;1645565;87;21263;-76
2022/11/16 00:32:58;;;;;;;20.97;9.40;;;;;;;8.81;77.53;99850.13;1632046;88;21269;-76
2022/11/16 00:36:03;;;;;;;15.60;8.95;;;;;;;8.84;77.51;99845.67;1645103;87;21188;-77
2022/11/16 00:39:10;;;;;;;14.95;8.85;;;;;;;8.85;77.54;99837.00;1630781;88;21233;-76
2022/11/16 00:42:16;;;;;;;17.17;9.43;;;;;;;8.91;77.39;99831.67;1645006;87;21193;-76
2022/11/16 00:45:21;;;;;;;15.28;8.70;;;;;;;8.84;77.68;99825.73;1631016;88;21302;-77
2022/11/16 00:48:29;;;;;;;15.83;8.70;;;;;;;8.77;78.04;99822.88;1646232;87;21190;-77
2022/11/16 00:51:36;;;;;;;16.42;9.15;;;;;;;8.76;78.21;99819.81;1632193;88;21212;-77
2022/11/16 00:54:43;;;;;;;20.82;9.28;;;;;;;8.82;78.09;99813.64;1646422;87;21209;-77
2022/11/16 00:57:48;;;;;;;19.35;9.68;;;;;;;8.87;77.99;99812.59;1632141;88;21234;-76
2022/11/16 01:00:55;;;;;;;17.12;8.20;;;;;;;8.85;78.16;99806.48;1645160;87;21240;-76
2022/11/16 01:04:01;;;;;;;13.68;8.23;;;;;;;8.85;78.29;99801.55;1632075;88;21226;-76
2022/11/16 01:07:08;;;;;;;12.75;8.05;;;;;;;8.91;78.32;99796.73;1646204;87;21205;-76
2022/11/16 01:10:17;;;;;;;16.30;8.33;;;;;;;8.95;78.07;99794.84;1631448;88;21266;-77
2022/11/16 01:13:25;;;;;;;17.87;9.08;;;;;;;8.96;77.99;99790.23;1646033;85;21161;-77
2022/11/16 01:16:32;;;;;;;21.07;9.90;;;;;;;9.01;77.95;99789.69;1625815;87;21773;-77
2022/11/16 01:19:38;;;;;;;11.75;9.25;;;;;;;8.98;78.17;99784.59;1657824;86;21212;-76
2022/11/16 01:22:43;;;;;;;17.50;9.45;;;;;;;9.03;78.04;99778.92;1657855;86;21192;-77
2022/11/16 01:25:49;;;;;;;18.80;10.05;;;;;;;9.14;77.79;99768.14;1657848;86;21215;-77
2022/11/16 01:28:57;;;;;;;16.70;10.25;;;;;;;8.98;78.21;99759.52;1657927;86;21203;-76
2022/11/16 01:32:06;;;;;;;19.27;8.90;;;;;;;8.98;78.22;99760.88;1657020;86;21242;-76
2022/11/16 01:35:13;;;;;;;14.70;9.25;;;;;;;9.05;78.12;99763.76;1657433;86;21181;-76
2022/11/16 01:38:19;;;;;;;15.18;8.78;;;;;;;9.12;77.88;99747.83;1658081;86;21180;-76
2022/11/16 01:41:31;;;;;;;20.60;9.85;;;;;;;9.06;78.08;99747.72;1657010;86;21207;-76
2022/11/16 01:44:46;;;;;;;17.52;9.25;;;;;;;9.05;78.04;99748.23;1656712;86;21369;-77
2022/11/16 01:47:51;;;;;;;15.35;8.93;;;;;;;9.19;77.79;99738.42;1656555;86;21227;-77
2022/11/16 01:50:58;;;;;;;13.32;8.80;;;;;;;9.25;77.36;99724.05;1657192;86;21239;-77
2022/11/16 01:54:04;;;;;;;17.55;8.65;;;;;;;9.18;77.51;99722.57;1658908;86;21172;-76
2022/11/16 01:57:30;;;;;;;15.65;8.50;;;;;;;9.16;77.58;99721.89;1658823;86;21204;-76
2022/11/16 02:00:36;;;;;;;14.68;8.08;;;;;;;9.14;77.76;99722.59;1658212;86;21272;-76
2022/11/16 02:03:48;;;;;;;17.37;10.10;;;;;;;9.27;77.46;99716.55;1650832;85;21766;-76
2022/11/16 02:07:05;;;;;;;15.95;8.73;;;;;;;9.13;77.65;99710.52;1656575;85;21817;-76
2022/11/16 02:10:25;;;;;;;17.17;9.85;;;;;;;9.03;78.37;99715.33;1655725;86;21199;-76
2022/11/16 02:14:10;;;;;;;17.40;9.35;;;;;;;9.11;78.29;99709.83;1657854;86;21528;-76
2022/11/16 02:17:55;;;;;;;14.13;9.45;;;;;;;9.23;77.83;99724.76;1657426;86;22704;-76
2022/11/16 02:21:22;;;;;;;20.77;9.13;;;;;;;9.35;77.54;99721.91;1657464;86;21826;-76
2022/11/16 02:24:48;;;;;;;17.85;10.53;;;;;;;9.30;77.62;99720.25;1657924;86;21727;-75
2022/11/16 02:28:36;;;;;;;18.77;10.10;;;;;;;9.39;77.52;99721.05;1658060;86;21438;-76
2022/11/16 02:31:46;;;;;;;19.35;9.65;;;;;;;9.22;77.92;99718.94;1657117;86;21212;-77
2022/11/16 02:35:13;;;;;;;17.45;9.73;;;;;;;9.28;78.06;99704.59;1657853;86;21295;-76
2022/11/16 02:38:22;;;;;;;15.25;9.30;;;;;;;9.31;77.94;99700.62;1657842;86;21200;-75
2022/11/16 02:41:28;;;;;;;14.23;9.33;;;;;;;9.41;77.69;99704.83;1657366;86;21413;-76
2022/11/16 02:44:43;;;;;;;18.05;8.98;;;;;;;9.55;77.27;99704.55;1657942;86;21208;-76
2022/11/16 02:47:48;;;;;;;19.37;8.70;;;;;;;9.59;77.22;99704.47;1657019;86;21442;-76
2022/11/16 02:50:56;;;;;;;18.95;9.15;;;;;;;9.46;77.69;99691.48;1657623;86;21235;-76
2022/11/16 02:54:16;;;;;;;18.00;9.18;;;;;;;9.30;78.20;99690.23;1657905;86;21200;-76
2022/11/16 02:57:43;;;;;;;23.73;11.45;;;;;;;9.43;77.98;99690.47;1657996;86;21187;-76
2022/11/16 03:01:17;;;;;;;15.55;8.83;;;;;;;9.69;77.32;99690.56;1656495;85;21438;-76
2022/11/16 03:04:31;;;;;;;15.23;10.25;;;;;;;9.02;79.42;99692.66;1657651;86;21208;-76
2022/11/16 03:07:41;;;;;;;19.05;9.93;;;;;;;9.43;78.38;99685.00;1658769;86;21195;-76
2022/11/16 03:14:16;;;;;;;18.70;10.95;;;;;;;9.28;78.82;99673.20;1657663;86;21223;-76
2022/11/16 03:17:27;;;;;;;19.92;10.00;;;;;;;9.24;78.81;99673.23;1656555;86;21219;-76
2022/11/16 03:20:36;;;;;;;17.42;10.48;;;;;;;9.38;78.39;99673.80;1627915;88;21403;-75
2022/11/16 03:23:44;;;;;;;18.55;10.60;;;;;;;9.37;78.51;99673.47;1615289;89;21249;-75
2022/11/16 03:27:36;;;;;;;25.80;13.22;;;;;;;9.15;79.33;99668.36;1615083;89;21277;-75
2022/11/16 03:30:43;;;;;;;17.98;11.38;;;;;;;9.18;79.42;99662.55;1607915;89;21285;-76
2022/11/16 03:34:00;;;;;;;14.10;8.98;;;;;;;9.26;79.26;99649.84;1615962;89;21847;-75
2022/11/16 03:37:05;;;;;;;14.70;9.65;;;;;;;9.25;79.20;99647.64;1614827;89;21225;-76
2022/11/16 03:40:11;;;;;;;21.40;9.95;;;;;;;9.28;79.13;99639.09;1616290;89;21269;-76
2022/11/16 03:43:18;;;;;;;19.15;9.68;;;;;;;9.36;78.72;99637.66;1598710;89;21252;-76
2022/11/16 03:46:26;;;;;;;16.40;10.40;;;;;;;9.50;78.25;99637.85;1617057;89;21221;-76
2022/11/16 03:49:31;;;;;;;18.85;11.10;;;;;;;9.51;78.05;99632.75;1615388;88;21265;-76
2022/11/16 03:52:38;;;;;;;18.05;9.88;;;;;;;9.30;78.85;99619.27;1615732;89;21230;-75
2022/11/16 03:55:44;;;;;;;18.55;10.50;;;;;;;9.34;79.04;99621.97;1616405;89;21230;-76
2022/11/16 03:58:51;;;;;;;17.48;10.13;;;;;;;9.53;78.66;99632.88;1616445;89;21277;-76
2022/11/16 04:01:59;;;;;;;19.92;10.30;;;;;;;9.77;77.84;99633.66;1616125;89;21225;-75
2022/11/16 04:25:44;;;;;;;14.47;8.95;;;;;;;9.56;78.50;99622.96;1624414;88;21213;-75
2022/11/16 04:28:48;;;;;;;13.58;9.88;;;;;;;9.55;78.70;99617.17;1625742;88;22001;-75
2022/11/16 04:38:36;;;;;;;20.50;11.05;;;;;;;9.48;78.70;99610.23;1625485;88;21252;-76
2022/11/16 04:48:30;;;;;;;22.87;11.20;;;;;;;9.62;78.75;99611.28;1625542;88;21221;-75
2022/11/16 04:51:35;;;;;;;16.10;10.80;;;;;;;9.56;79.10;99608.46;1625630;88;21224;-76
2022/11/16 04:54:41;;;;;;;20.43;10.25;;;;;;;9.51;79.07;99598.10;1624904;88;21807;-77
2022/11/16 04:57:47;;;;;;;19.57;11.68;;;;;;;9.39;79.70;99598.22;1624514;88;21831;-76
2022/11/16 05:00:54;;;;;;;20.55;11.65;;;;;;;9.45;79.92;99601.03;1625604;88;21807;-76
2022/11/16 05:04:00;;;;;;;25.08;12.07;;;;;;;9.70;79.23;99599.43;1624622;88;21272;-77
2022/11/16 05:07:12;;;;;;;22.10;11.70;;;;;;;9.74;79.07;99604.85;1624391;88;21221;-77
2022/11/16 05:10:21;;;;;;;21.35;12.82;;;;;;;9.86;78.80;99600.59;1624679;88;21827;-77
2022/11/16 05:13:27;;;;;;;27.90;14.03;;;;;;;9.74;79.05;99604.85;1625031;88;21297;-77
2022/11/16 05:16:33;;;;;;;27.80;15.30;;;;;;;9.78;79.43;99596.59;1625627;88;22576;-76
2022/11/16 05:24:32;;;;;;;23.57;14.30;;;;;;;9.80;79.33;99584.97;1598288;90;21237;-76
2022/11/16 05:26:12;;;;;;;26.12;13.93;;;;;;;9.82;79.62;99581.52;1597389;90;21216;-77
2022/11/16 05:29:17;;;;;;;25.00;13.05;;;;;;;9.88;79.38;99582.15;1597376;90;21419;-77
2022/11/16 05:32:24;;;;;;;30.20;13.38;;;;;;;9.81;79.54;99585.30;1597249;90;21237;-76
2022/11/16 05:35:30;;;;;;;30.90;13.48;;;;;;;9.75;80.08;99584.69;1599450;90;21233;-77
2022/11/16 05:38:37;;;;;;;27.22;13.03;;;;;;;9.75;80.27;99577.02;1598584;90;21265;-77
2022/11/16 05:41:35;;;;;;;23.65;12.35;;;;;;;9.85;80.12;99578.42;1598486;90;21819;-76
2022/11/16 05:44:28;;;;;;;24.57;12.30;;;;;;;9.95;79.83;99575.39;1597661;90;21366;-76
2022/11/16 05:47:34;;;;;;;29.87;13.85;;;;;;;10.02;79.51;99574.10;1598439;90;21249;-77
2022/11/16 05:50:42;;;;;;;28.23;14.00;;;;;;;9.97;79.58;99578.28;1597218;90;21240;-76
2022/11/16 05:53:48;;;;;;;34.27;14.87;;;;;;;10.01;79.54;99569.69;1597266;90;21265;-76
2022/11/16 05:56:55;;;;;;;29.70;14.53;;;;;;;10.11;79.34;99572.95;1598506;90;21228;-76
2022/11/16 06:00:01;;;;;;;34.53;14.98;;;;;;;10.23;78.94;99575.53;1598322;90;21621;-77
2022/11/16 06:03:09;;;;;;;57.45;16.75;;;;;;;10.17;79.23;99568.96;1598492;90;21232;-77
2022/11/16 06:06:15;;;;;;;37.53;17.17;;;;;;;10.21;79.13;99554.40;1597650;90;21831;-77
2022/11/16 06:09:20;;;;;;;27.80;14.35;;;;;;;10.21;79.27;99556.61;1598429;90;21226;-76
2022/11/16 06:12:30;;;;;;;43.65;16.73;;;;;;;10.27;79.26;99550.08;1598493;90;21748;-76
2022/11/16 06:15:44;;;;;;;41.45;17.12;;;;;;;10.24;79.48;99554.03;1594383;89;21420;-77
2022/11/16 06:18:54;;;;;;;40.15;18.48;;;;;;;10.22;79.66;99551.98;1591796;90;21233;-77
2022/11/16 06:22:05;;;;;;;28.67;14.25;;;;;;;10.33;79.38;99554.23;1595622;88;21348;-77
2022/11/16 06:25:10;;;;;;;46.88;17.23;;;;;;;10.28;79.83;99555.86;1584515;90;21293;-78
2022/11/16 06:28:17;;;;;;;44.13;16.95;;;;;;;10.33;79.75;99554.23;1609977;89;21210;-77
2022/11/16 06:31:24;;;;;;;37.53;14.05;;;;;;;10.32;80.03;99552.55;1603895;89;21209;-78
2022/11/16 06:34:29;;;;;;;68.05;17.17;;;;;;;10.39;80.05;99546.63;1605950;87;21867;-78
2022/11/16 06:37:37;;;;;;;52.08;17.82;;;;;;;10.33;80.24;99551.50;1654944;85;21276;-77
2022/11/16 06:40:44;;;;;;;52.55;21.17;;;;;;;10.46;79.92;99547.55;1622520;88;21285;-77
2022/11/16 06:43:55;;;;;;;46.85;21.60;;;;;;;10.52;79.92;99543.72;1629134;86;21199;-78
2022/11/16 06:47:04;;;;;;;55.25;19.10;;;;;;;10.55;79.99;99543.34;1589503;90;21205;-76
2022/11/16 06:50:10;;;;;;;61.13;21.20;;;;;;;10.58;80.12;99540.19;1623370;88;21356;-77
2022/11/16 06:53:16;;;;;;;50.25;20.85;;;;;;;10.59;80.37;99534.55;1637009;85;21223;-76
2022/11/16 06:56:22;;;;;;;69.40;29.40;;;;;;;10.41;81.26;99536.88;1647785;85;21873;-77
2022/11/16 06:59:28;;;;;;;87.65;34.48;;;;;;;10.42;81.56;99535.31;1651629;86;21750;-76
2022/11/16 07:02:35;;;;;;;92.00;36.63;;;;;;;10.54;81.20;99524.72;1587087;90;21942;-76
2022/11/16 07:06:15;;;;;;;73.80;30.68;;;;;;;10.63;81.00;99515.84;1647162;85;21220;-77
2022/11/16 07:09:21;;;;;;;70.57;28.75;;;;;;;10.67;80.99;99517.14;1654664;85;21188;-76
2022/11/16 07:12:23;;;;;;;58.70;23.65;;;;;;;10.56;81.59;99510.84;1651368;86;21194;-77
2022/11/16 07:15:29;;;;;;;56.13;21.30;;;;;;;10.54;82.39;99515.15;1646314;85;21200;-77
2022/11/16 07:18:35;;;;;;;48.95;20.82;;;;;;;10.67;81.99;99513.88;1653528;86;21216;-77
2022/11/16 07:21:33;;;;;;;47.30;19.32;;;;;;;10.69;81.40;99514.55;1653771;85;21883;-77
2022/11/16 07:24:34;;;;;;;50.95;19.02;;;;;;;10.77;81.26;99505.34;1654553;86;21227;-77
2022/11/16 07:27:40;;;;;;;40.90;19.57;;;;;;;10.58;82.09;99506.85;1652991;86;21242;-77
2022/11/16 07:30:47;;;;;;;43.15;16.82;;;;;;;10.50;82.92;99504.27;1645771;85;21248;-77
2022/11/16 07:38:14;;;;;;;27.00;13.15;;;;;;;10.53;82.61;99486.61;1652196;86;21252;-76
2022/11/16 07:41:24;;;;;;;33.98;15.90;;;;;;;10.49;83.13;99479.31;1588942;89;21812;-77
2022/11/16 07:44:32;;;;;;;33.42;15.15;;;;;;;10.44;83.33;99475.83;1629666;87;21213;-76
2022/11/16 07:47:44;;;;;;;31.80;14.55;;;;;;;10.36;83.86;99471.85;1594663;89;21214;-77
2022/11/16 07:50:51;;;;;;;29.63;14.35;;;;;;;10.42;83.99;99473.80;1653338;85;21187;-77
2022/11/16 07:54:01;;;;;;;33.05;15.95;;;;;;;10.51;83.87;99467.68;1655360;85;21204;-78
2022/11/16 07:57:09;;;;;;;31.33;13.30;;;;;;;10.56;84.16;99465.72;1650592;85;21220;-78
2022/11/16 08:00:17;;;;;;;29.32;14.70;;;;;;;10.63;84.37;99481.16;1651974;86;21211;-77
2022/11/16 08:03:24;;;;;;;32.20;13.62;;;;;;;10.69;84.45;99487.73;1649039;85;21357;-78
2022/11/16 08:06:33;;;;;;;31.23;13.20;;;;;;;10.82;84.41;99481.00;1651081;85;21652;-77
2022/11/16 08:09:36;;;;;;;25.88;13.70;;;;;;;10.86;84.64;99482.27;1648703;86;21287;-78
2022/11/16 08:12:35;;;;;;;27.40;12.63;;;;;;;11.05;84.44;99483.47;1618352;87;21231;-78
2022/11/16 08:15:31;;;;;;;30.00;13.80;;;;;;;11.07;84.51;99476.45;1652230;85;21252;-78
2022/11/16 08:18:38;;;;;;;22.17;12.37;;;;;;;11.16;84.44;99473.88;1653913;85;21227;-78
2022/11/16 08:21:44;;;;;;;23.57;11.60;;;;;;;11.31;84.23;99469.66;1649071;85;21215;-76
2022/11/16 08:24:52;;;;;;;23.42;11.08;;;;;;;11.42;84.06;99468.55;1638355;86;21244;-75
2022/11/16 08:27:59;;;;;;;24.12;11.70;;;;;;;11.50;83.87;99457.43;1626445;86;21208;-77
2022/11/16 08:31:06;;;;;;;18.35;10.78;;;;;;;11.61;83.75;99468.85;1640571;86;21220;-76
2022/11/16 08:34:14;;;;;;;20.68;9.93;;;;;;;11.75;83.35;99454.16;1632721;86;21162;-77
2022/11/16 08:37:24;;;;;;;20.88;10.50;;;;;;;11.97;82.83;99459.87;1623213;87;21276;-77
2022/11/16 08:40:32;;;;;;;20.77;9.48;;;;;;;12.08;82.85;99451.56;1639933;86;21552;-76
2022/11/16 08:43:39;;;;;;;23.90;10.80;;;;;;;12.22;82.63;99460.67;1636954;87;21532;-77
2022/11/16 08:46:45;;;;;;;17.67;9.73;;;;;;;12.27;82.22;99455.41;1638186;86;21268;-77
2022/11/16 08:49:56;;;;;;;17.07;9.78;;;;;;;12.30;82.10;99452.25;1635241;86;21220;-76
2022/11/16 08:53:04;;;;;;;16.82;9.10;;;;;;;12.52;81.35;99454.30;1638105;87;21252;-77
2022/11/16 08:56:13;;;;;;;18.35;9.28;;;;;;;12.62;80.92;99443.75;1634840;86;21490;-76
2022/11/16 08:59:19;;;;;;;14.63;9.23;;;;;;;12.62;80.78;99447.86;1640122;87;21193;-75
2022/11/16 09:02:28;;;;;;;19.32;9.33;;;;;;;12.67;80.47;99443.95;1625699;87;21326;-76
2022/11/16 09:05:34;;;;;;;11.33;7.50;;;;;;;12.67;80.44;99443.13;1626567;86;21946;-76
2022/11/16 09:08:39;;;;;;;16.20;8.33;;;;;;;12.67;80.30;99434.89;1631062;86;21206;-77
2022/11/16 09:11:45;;;;;;;13.53;8.13;;;;;;;12.78;79.88;99427.38;1625688;86;21265;-78
2022/11/16 11:05:27;;;;;;;25.25;11.70;;;;;;;9.96;100.00;99297.07;1869321;76;28634;-79
2022/11/16 11:08:36;;;;;;;17.60;10.53;;;;;;;10.16;99.63;99301.33;1846343;77;21157;-80
2022/11/16 11:15:13;;;;;;;19.80;11.33;;;;;;;9.70;100.00;99300.42;1840687;77;21207;-80
2022/11/16 11:18:31;;;;;;;22.60;11.97;;;;;;;9.72;100.00;99295.59;1832090;77;21223;-80
2022/11/16 11:21:36;;;;;;;18.82;10.23;;;;;;;9.74;100.00;99290.80;1833652;77;21195;-80
2022/11/16 11:24:43;;;;;;;19.40;12.58;;;;;;;9.74;100.00;99279.88;1836944;76;21178;-80
2022/11/16 11:27:49;;;;;;;26.48;12.15;;;;;;;9.63;100.00;99284.48;1837962;77;21173;-80
2022/11/16 11:31:25;;;;;;;15.83;11.22;;;;;;;9.48;100.00;99274.99;1818280;77;21470;-79
2022/11/16 11:34:36;;;;;;;21.20;13.15;;;;;;;9.40;100.00;99273.22;1823643;77;21501;-79
2022/11/16 11:37:43;;;;;;;21.05;13.60;;;;;;;9.54;100.00;99276.09;1815177;78;21699;-80
2022/11/16 11:40:49;;;;;;;21.30;13.58;;;;;;;9.34;100.00;99276.73;1822414;78;21169;-80
2022/11/16 11:44:12;;;;;;;20.92;12.37;;;;;;;9.61;100.00;99266.94;1819233;77;21202;-80
2022/11/16 11:47:47;;;;;;;22.13;13.78;;;;;;;9.66;100.00;99261.73;1814682;77;21711;-80
2022/11/16 11:51:01;;;;;;;23.18;12.90;;;;;;;9.74;100.00;99259.40;1806812;78;21145;-80
2022/11/16 11:54:07;;;;;;;22.87;12.78;;;;;;;9.82;100.00;99257.03;1808283;77;21712;-78
2022/11/16 11:57:20;;;;;;;23.62;13.40;;;;;;;9.63;100.00;99258.02;1776001;79;21210;-80
2022/11/16 12:00:24;;;;;;;28.55;13.45;;;;;;;9.71;100.00;99257.05;1758515;80;21217;-80
2022/11/16 12:04:00;;;;;;;22.67;13.80;;;;;;;9.65;100.00;99260.05;1772106;80;21232;-80
2022/11/16 12:07:23;;;;;;;18.62;11.80;;;;;;;9.57;100.00;99252.51;1741414;81;21248;-80
2022/11/16 12:10:33;;;;;;;22.05;12.03;;;;;;;9.56;100.00;99249.45;1723633;82;21228;-80
2022/11/16 12:13:50;;;;;;;;;;;;;;;9.58;100.00;99246.84;1745069;80;21770;-79
2022/11/16 12:17:39;;;;;;;25.05;13.43;;;;;;;9.66;100.00;99248.61;1718682;83;20258;-81
2022/11/16 12:21:21;;;;;;;21.87;12.78;;;;;;;9.56;100.00;99238.02;1719435;83;21243;-80
2022/11/16 12:24:52;;;;;;;20.30;12.45;;;;;;;9.42;100.00;99237.56;1700315;83;22841;-80
2022/11/16 12:28:22;;;;;;;24.20;13.08;;;;;;;9.31;100.00;99240.27;1744049;81;21220;-80
2022/11/16 12:31:38;;;;;;;19.40;13.00;;;;;;;9.19;100.00;99233.66;1725212;83;21247;-80
2022/11/16 12:35:12;;;;;;;19.57;12.00;;;;;;;9.30;100.00;99231.77;1720708;83;21239;-80
2022/11/16 12:38:38;;;;;;;18.80;12.53;;;;;;;9.35;100.00;99232.02;1713075;83;21219;-80
2022/11/16 12:41:55;;;;;;;19.10;11.48;;;;;;;9.25;100.00;99223.31;1632155;86;21226;-80
2022/11/16 12:45:36;;;;;;;22.05;12.75;;;;;;;9.39;100.00;99225.14;1720373;82;21180;-80
2022/11/16 12:49:12;;;;;;;18.45;12.78;;;;;;;9.49;100.00;99227.54;1712694;83;21220;-79
2022/11/16 12:52:54;;;;;;;24.32;13.62;;;;;;;9.41;100.00;99225.80;1738955;81;21224;-80
2022/11/16 12:56:29;;;;;;;22.02;12.45;;;;;;;9.47;100.00;99225.02;1745100;80;21203;-79
2022/11/16 13:00:06;;;;;;;23.12;13.43;;;;;;;9.77;100.00;99220.75;1741158;80;21532;-79
2022/11/16 13:03:33;;;;;;;23.62;14.10;;;;;;;9.52;100.00;99215.40;1698564;82;21160;-80
2022/11/16 13:07:03;;;;;;;21.62;13.90;;;;;;;9.51;100.00;99223.27;1750009;81;21244;-79
2022/11/16 13:10:26;;;;;;;23.00;14.30;;;;;;;9.52;100.00;99229.89;1756169;80;21163;-79
2022/11/16 13:13:33;;;;;;;29.50;14.23;;;;;;;9.60;100.00;99228.92;1770335;80;21226;-79
2022/11/16 13:16:39;;;;;;;24.55;14.15;;;;;;;9.47;100.00;99223.65;1759856;80;21172;-79
2022/11/16 13:19:45;;;;;;;21.10;14.80;;;;;;;9.52;100.00;99216.23;1750914;80;21179;-79
2022/11/16 13:22:59;;;;;;;23.25;14.28;;;;;;;9.45;100.00;99214.80;1757712;81;21203;-79
2022/11/16 13:26:28;;;;;;;23.98;14.03;;;;;;;9.55;100.00;99217.72;1784467;80;21171;-78
2022/11/16 13:29:50;;;;;;;19.37;12.78;;;;;;;9.55;100.00;99211.77;1784573;80;21187;-79
2022/11/16 13:33:33;;;;;;;26.35;12.40;;;;;;;9.59;100.00;99214.39;1747487;80;21199;-80
2022/11/16 13:36:46;;;;;;;23.25;14.50;;;;;;;9.53;100.00;99215.72;1726975;83;21249;-80
2022/11/16 13:40:10;;;;;;;23.42;13.28;;;;;;;9.65;100.00;99216.36;1734081;82;21184;-79
2022/11/16 13:43:22;;;;;;;25.43;14.47;;;;;;;9.70;100.00;99215.25;1759808;81;21188;-79
2022/11/16 13:46:28;;;;;;;23.35;13.53;;;;;;;9.64;100.00;99206.98;1751546;82;21258;-80
2022/11/16 13:49:37;;;;;;;23.57;14.07;;;;;;;9.69;100.00;99210.84;1758602;81;21251;-80
2022/11/16 13:52:55;;;;;;;26.37;14.58;;;;;;;9.73;100.00;99213.99;1752897;82;21208;-79
2022/11/16 13:56:06;;;;;;;26.35;16.87;;;;;;;9.76;99.92;99207.30;1757784;81;21231;-79
2022/11/16 13:59:11;;;;;;;24.05;15.30;;;;;;;9.81;98.70;99208.39;1751154;82;21218;-79
2022/11/16 14:02:39;;;;;;;20.88;13.22;;;;;;;9.69;99.22;99207.23;1758268;81;21204;-79
2022/11/16 14:05:47;;;;;;;21.85;13.75;;;;;;;9.61;100.00;99200.05;1751539;82;21247;-79
2022/11/16 14:08:59;;;;;;;22.48;13.68;;;;;;;9.74;99.90;99204.78;1758833;81;21208;-79
2022/11/16 14:12:04;;;;;;;24.43;13.60;;;;;;;9.71;99.65;99201.91;1753234;82;21264;-79
2022/11/16 14:15:23;;;;;;;22.58;12.13;;;;;;;9.61;99.65;99193.22;1739289;81;21267;-79
2022/11/16 14:18:38;;;;;;;24.52;12.30;;;;;;;9.48;100.00;99192.58;1753297;82;21754;-79
2022/11/16 14:22:06;;;;;;;19.00;10.72;;;;;;;9.39;100.00;99195.12;1758386;81;21368;-80
2022/11/16 14:25:45;;;;;;;17.92;10.85;;;;;;;9.58;100.00;99189.51;1753207;82;21204;-79
2022/11/16 14:29:11;;;;;;;15.13;9.30;;;;;;;9.66;100.00;99184.44;1758350;81;21144;-79
2022/11/16 14:32:31;;;;;;;15.63;9.28;;;;;;;9.81;99.32;99190.64;1753690;82;21750;-80
2022/11/16 14:35:47;;;;;;;13.10;8.35;;;;;;;9.58;99.93;99180.48;1759448;81;21212;-79
2022/11/16 14:38:54;;;;;;;13.18;8.15;;;;;;;9.48;100.00;99170.74;1770387;81;21761;-80
2022/11/16 14:41:59;;;;;;;17.98;9.73;;;;;;;9.52;100.00;99180.75;1770596;81;21195;-79
2022/11/16 14:45:08;;;;;;;17.55;8.95;;;;;;;9.61;100.00;99181.46;1770654;81;21167;-79
2022/11/16 14:48:28;;;;;;;15.78;9.13;;;;;;;9.51;100.00;99183.16;1770101;81;21191;-79
2022/11/16 14:51:35;;;;;;;15.93;9.70;;;;;;;9.33;100.00;99179.53;1769904;80;21278;-79
2022/11/16 14:55:02;;;;;;;17.40;9.05;;;;;;;9.37;100.00;99172.65;1770316;81;21239;-80
2022/11/16 14:58:29;;;;;;;21.10;8.65;;;;;;;9.12;100.00;99169.98;1770366;81;21203;-79
2022/11/16 15:01:40;;;;;;;16.12;7.87;;;;;;;9.17;100.00;99174.33;1763394;81;21215;-79
2022/11/16 15:04:47;;;;;;;18.07;9.40;;;;;;;9.31;100.00;99171.20;1770099;81;21188;-78
2022/11/16 15:07:56;;;;;;;16.23;8.38;;;;;;;9.20;100.00;99160.30;1764167;81;21341;-79
2022/11/16 15:11:02;;;;;;;16.80;9.15;;;;;;;9.08;100.00;99161.85;1761066;81;21239;-79
2022/11/16 15:14:09;;;;;;;17.23;9.78;;;;;;;8.94;100.00;99164.99;1760863;81;21191;-79
2022/11/16 15:17:17;;;;;;;15.13;9.45;;;;;;;9.22;100.00;99165.03;1759989;81;21235;-79
2022/11/16 15:20:28;;;;;;;15.65;10.25;;;;;;;8.88;100.00;99162.49;1737240;81;21473;-79
2022/11/16 15:23:34;;;;;;;13.75;9.48;;;;;;;8.88;100.00;99168.47;1761118;81;21192;-79
2022/11/16 15:26:43;;;;;;;18.90;9.20;;;;;;;9.16;100.00;99165.83;1759440;81;21302;-80
2022/11/16 15:29:50;;;;;;;17.00;9.88;;;;;;;9.03;100.00;99167.05;1759307;81;21207;-79
2022/11/16 15:32:58;;;;;;;16.48;10.53;;;;;;;8.95;100.00;99171.61;1760801;81;21192;-80
2022/11/16 15:36:03;;;;;;;17.20;9.20;;;;;;;8.83;100.00;99172.30;1760873;81;21267;-80
2022/11/16 15:39:09;;;;;;;15.88;9.98;;;;;;;8.82;100.00;99170.09;1760771;81;21255;-79
2022/11/16 15:42:19;;;;;;;14.58;8.30;;;;;;;8.84;100.00;99168.00;1760897;81;21750;-79
2022/11/16 15:45:29;;;;;;;;;;;;;;;8.92;100.00;99165.16;1762258;81;21192;-80
2022/11/16 15:48:34;;;;;;;19.02;9.88;;;;;;;8.86;100.00;99165.95;1759432;81;20196;-80
2022/11/16 15:51:39;;;;;;;19.25;10.45;;;;;;;8.72;100.00;99168.20;1760844;81;21196;-79
2022/11/16 15:55:03;;;;;;;16.67;10.50;;;;;;;8.72;100.00;99162.75;1760615;81;21285;-80
2022/11/16 15:58:13;;;;;;;17.25;10.75;;;;;;;8.85;100.00;99157.97;1759696;81;21212;-80
2022/11/16 16:01:20;;;;;;;21.10;12.95;;;;;;;8.77;100.00;99153.99;1759611;81;21200;-79
2022/11/16 16:04:27;;;;;;;20.55;13.83;;;;;;;8.75;100.00;99154.19;1760896;81;21196;-80
2022/11/16 16:07:49;;;;;;;21.12;13.88;;;;;;;8.82;100.00;99149.64;1760303;81;21258;-79
2022/11/16 16:11:04;;;;;;;20.60;13.70;;;;;;;8.99;100.00;99156.20;1760903;81;21173;-79
2022/11/16 16:14:10;;;;;;;25.48;14.73;;;;;;;9.01;100.00;99150.89;1761081;81;21179;-79
2022/11/16 16:17:15;;;;;;;28.65;17.45;;;;;;;8.83;100.00;99156.78;1759371;81;21219;-80
2022/11/16 16:20:32;;;;;;;29.90;17.40;;;;;;;8.90;100.00;99148.16;1760869;81;21734;-80
2022/11/16 16:23:37;;;;;;;23.07;16.37;;;;;;;8.88;100.00;99156.20;1760083;81;21282;-79
2022/11/16 16:26:43;;;;;;;29.72;17.02;;;;;;;8.86;100.00;99150.95;1760808;81;21267;-79
2022/11/16 16:29:52;;;;;;;26.10;16.73;;;;;;;8.91;100.00;99145.75;1760729;81;21196;-80
2022/11/16 16:32:52;;;;;;;21.50;15.23;;;;;;;8.81;100.00;99139.78;1760811;81;21722;-79
2022/11/16 16:35:49;;;;;;;24.92;15.90;;;;;;;8.82;100.00;99133.28;1760973;81;21180;-79
2022/11/16 16:38:55;;;;;;;23.38;14.83;;;;;;;8.93;100.00;99134.13;1759409;81;21220;-80
2022/11/16 16:42:01;;;;;;;25.32;15.25;;;;;;;8.98;100.00;99138.98;1760949;81;21750;-79
2022/11/16 16:45:07;;;;;;;27.55;15.08;;;;;;;9.06;100.00;99133.41;1759457;81;21231;-79
2022/11/16 16:48:14;;;;;;;23.35;16.00;;;;;;;9.20;100.00;99137.11;1760046;81;21192;-80
2022/11/16 16:51:19;;;;;;;23.15;15.85;;;;;;;8.92;100.00;99128.34;1760832;81;21231;-79
2022/11/16 16:54:24;;;;;;;24.55;15.03;;;;;;;8.85;100.00;99132.06;1759879;81;21227;-79
2022/11/16 16:57:29;;;;;;;19.92;14.18;;;;;;;8.81;100.00;99128.03;1760473;81;21200;-79
2022/11/16 17:00:35;;;;;;;18.98;13.40;;;;;;;9.00;100.00;99125.18;1760797;81;21239;-79
2022/11/16 17:03:41;;;;;;;19.17;13.20;;;;;;;9.15;100.00;99128.67;1760937;81;21211;-79
2022/11/16 17:06:47;;;;;;;18.90;13.15;;;;;;;8.80;100.00;99130.41;1760808;81;21180;-79
2022/11/16 17:09:53;;;;;;;16.67;12.15;;;;;;;8.85;100.00;99124.73;1759821;81;21745;-79
2022/11/16 17:13:04;;;;;;;16.52;11.48;;;;;;;8.94;100.00;99115.38;1760588;81;21294;-80
2022/11/16 17:16:13;;;;;;;14.83;9.85;;;;;;;8.79;100.00;99115.94;1760743;81;21176;-80
2022/11/16 17:19:18;;;;;;;15.72;10.58;;;;;;;9.05;100.00;99114.53;1759520;81;21223;-79
2022/11/16 17:22:25;;;;;;;14.15;10.38;;;;;;;8.81;100.00;99107.06;1760759;81;21208;-79
2022/11/16 17:25:31;;;;;;;15.03;10.75;;;;;;;9.04;100.00;99099.20;1759590;81;21239;-79
2022/11/16 17:28:37;;;;;;;14.65;10.63;;;;;;;9.05;100.00;99099.00;1760134;81;21180;-80